Time;durP1;ratioP1;P1;durP2;ratioP2;P2;SDS_P1;SDS_P2;PMS_P1;PMS_P2;Temp;Humidity;BMP_temperature;BMP_pressure;BME280_temperature;BME280_humidity;BME280_pressure;Samples;Min_cycle;Max_cycle;Signal;HPM_P1;HPM_P2
2021/12/28 00:02:47;;;;;;;2.53;2.43;;;-2.50;99.90;;;;;;5075318;28;20517;-68
2021/12/28 00:05:34;;;;;;;0.80;0.80;;;-2.60;99.90;;;;;;5074894;28;20420;-68
2021/12/28 00:08:21;;;;;;;0.50;0.50;;;-2.50;99.90;;;;;;5074637;28;20463;-70
2021/12/28 00:11:10;;;;;;;0.50;0.50;;;-2.60;99.90;;;;;;5074653;28;20450;-68
2021/12/28 00:14:02;;;;;;;0.40;0.40;;;-2.60;99.90;;;;;;5076167;28;20975;-68
2021/12/28 00:19:53;;;;;;;1.00;0.83;;;-2.60;99.90;;;;;;5093729;28;20455;-70
2021/12/28 00:22:40;;;;;;;2.20;2.10;;;-2.80;99.90;;;;;;5092052;28;20455;-69
2021/12/28 00:25:27;;;;;;;0.70;0.70;;;-2.70;99.90;;;;;;5091662;28;20454;-68
2021/12/28 00:28:16;;;;;;;0.40;0.40;;;-2.80;99.90;;;;;;5079882;28;20423;-68
2021/12/28 00:31:04;;;;;;;0.60;0.60;;;-2.70;99.90;;;;;;5075035;28;20451;-68
2021/12/28 00:33:52;;;;;;;0.50;0.50;;;-2.70;99.90;;;;;;5074220;28;20424;-68
2021/12/28 00:36:39;;;;;;;0.40;0.40;;;-2.70;99.90;;;;;;5074953;28;20497;-68
2021/12/28 00:39:26;;;;;;;1.37;1.27;;;-2.80;99.90;;;;;;5075453;28;20883;-69
2021/12/28 00:42:14;;;;;;;0.60;0.60;;;-2.70;99.90;;;;;;5088176;28;20474;-69
2021/12/28 00:45:02;;;;;;;0.43;0.43;;;-2.80;99.90;;;;;;5092312;28;20448;-69
2021/12/28 00:47:50;;;;;;;0.50;0.50;;;-2.80;99.90;;;;;;5092355;28;20439;-69
2021/12/28 00:50:37;;;;;;;0.40;0.40;;;-2.90;99.90;;;;;;5091871;28;20420;-71
2021/12/28 00:53:24;;;;;;;0.40;0.40;;;-2.80;99.90;;;;;;5093041;28;20423;-73
2021/12/28 00:56:11;;;;;;;0.40;0.40;;;-2.90;99.90;;;;;;5094108;28;20424;-69
2021/12/28 00:58:58;;;;;;;0.40;0.40;;;-2.90;99.90;;;;;;5093228;28;20455;-71
2021/12/28 01:01:47;;;;;;;0.40;0.40;;;-2.80;99.90;;;;;;5105641;28;20484;-69
2021/12/28 01:04:34;;;;;;;0.87;0.87;;;-2.60;99.90;;;;;;5114739;28;20431;-69
2021/12/28 01:07:21;;;;;;;0.50;0.50;;;-2.70;99.90;;;;;;5115395;28;20426;-72
2021/12/28 01:10:12;;;;;;;0.40;0.40;;;-2.60;99.90;;;;;;5115723;28;20423;-72
2021/12/28 01:12:59;;;;;;;0.50;0.50;;;-2.40;99.90;;;;;;5115780;28;20494;-72
2021/12/28 01:15:47;;;;;;;0.40;0.40;;;-2.20;99.90;;;;;;5116174;28;20429;-69
2021/12/28 01:18:35;;;;;;;1.03;1.03;;;-2.10;99.90;;;;;;5115620;28;20439;-71
2021/12/28 01:21:22;;;;;;;0.50;0.50;;;-1.80;99.90;;;;;;5100390;28;20443;-68
2021/12/28 01:24:09;;;;;;;0.50;0.50;;;-1.70;99.90;;;;;;5094380;28;20955;-68
2021/12/28 01:26:56;;;;;;;0.40;0.40;;;-1.80;99.90;;;;;;5094639;28;20919;-69
2021/12/28 01:29:43;;;;;;;0.50;0.50;;;-1.70;99.90;;;;;;5094354;28;20437;-68
2021/12/28 01:32:30;;;;;;;1.90;1.80;;;-1.60;99.90;;;;;;5094449;28;20451;-69
2021/12/28 01:35:19;;;;;;;0.50;0.50;;;-1.90;99.90;;;;;;5093987;28;20960;-68
2021/12/28 01:38:07;;;;;;;0.50;0.50;;;-2.00;99.90;;;;;;5094016;28;20932;-69
2021/12/28 01:40:54;;;;;;;0.90;0.90;;;-2.10;99.90;;;;;;5093693;28;20842;-68
2021/12/28 01:43:43;;;;;;;0.80;0.80;;;-2.20;99.90;;;;;;5092808;28;20958;-68
2021/12/28 01:46:30;;;;;;;1.77;1.67;;;-2.20;99.90;;;;;;5093485;28;20423;-67
2021/12/28 01:49:16;;;;;;;2.60;2.60;;;-2.40;99.90;;;;;;5093418;28;20946;-68
2021/12/28 01:52:05;;;;;;;4.40;4.00;;;-2.40;99.90;;;;;;5093326;28;20846;-68
2021/12/28 01:54:52;;;;;;;0.50;0.50;;;-2.50;99.90;;;;;;5092206;28;20423;-68
2021/12/28 01:57:39;;;;;;;0.50;0.50;;;-2.60;99.90;;;;;;5093735;28;20423;-69
2021/12/28 02:00:26;;;;;;;1.00;1.00;;;-2.60;99.90;;;;;;5091707;28;20505;-71
2021/12/28 02:03:17;;;;;;;0.50;0.50;;;-2.60;99.90;;;;;;5073078;28;20412;-69
2021/12/28 02:06:05;;;;;;;0.70;0.70;;;-2.50;99.90;;;;;;5072256;28;20416;-68
2021/12/28 02:08:54;;;;;;;5.20;1.57;;;-2.50;99.90;;;;;;5072782;28;20798;-68
2021/12/28 02:11:41;;;;;;;0.70;0.70;;;-2.30;99.90;;;;;;5073680;28;21035;-69
2021/12/28 02:14:28;;;;;;;0.50;0.50;;;-2.30;99.90;;;;;;5080981;28;20841;-68
2021/12/28 02:17:15;;;;;;;12.80;4.83;;;-2.40;99.90;;;;;;5072499;28;20802;-69
2021/12/28 02:20:07;;;;;;;0.40;0.40;;;-2.30;99.90;;;;;;5074048;28;20506;-68
2021/12/28 02:22:54;;;;;;;0.40;0.40;;;-2.60;99.90;;;;;;5073814;28;20444;-67
2021/12/28 02:25:42;;;;;;;0.50;0.50;;;-2.70;99.90;;;;;;5073574;28;20442;-68
2021/12/28 02:28:29;;;;;;;1.80;1.70;;;-2.70;99.90;;;;;;5073494;28;20862;-67
2021/12/28 02:31:16;;;;;;;0.60;0.60;;;-2.80;99.90;;;;;;5073153;28;20435;-67
2021/12/28 02:34:04;;;;;;;9.23;4.50;;;-2.80;99.90;;;;;;5072961;28;20808;-68
2021/12/28 02:36:53;;;;;;;0.43;0.43;;;-2.80;99.90;;;;;;5074320;28;20443;-68
2021/12/28 02:39:39;;;;;;;0.60;0.60;;;-2.80;99.90;;;;;;5072527;28;20456;-68
2021/12/28 02:42:26;;;;;;;0.40;0.40;;;-2.90;99.90;;;;;;5072315;28;20450;-67
2021/12/28 02:45:16;;;;;;;0.73;0.73;;;-2.90;99.90;;;;;;5074139;28;20804;-67
2021/12/28 02:48:03;;;;;;;0.40;0.40;;;-2.70;99.90;;;;;;5074600;28;20441;-68
2021/12/28 02:50:54;;;;;;;2.10;2.00;;;-2.60;99.90;;;;;;5080443;28;20415;-69
2021/12/28 02:53:44;;;;;;;1.23;1.23;;;-2.80;99.90;;;;;;5086093;28;20427;-68
2021/12/28 02:56:31;;;;;;;0.40;0.40;;;-2.70;99.90;;;;;;5089131;28;20430;-68
2021/12/28 02:59:18;;;;;;;0.40;0.40;;;-2.70;99.90;;;;;;5070986;28;20806;-68
2021/12/28 03:02:05;;;;;;;0.50;0.50;;;-2.60;99.90;;;;;;5086778;28;20455;-69
2021/12/28 03:04:51;;;;;;;0.50;0.50;;;-2.70;99.90;;;;;;5092590;28;20445;-68
2021/12/28 03:07:38;;;;;;;0.40;0.40;;;-2.70;99.90;;;;;;5092929;28;20419;-68
2021/12/28 03:10:27;;;;;;;0.40;0.40;;;-2.60;99.90;;;;;;5092814;28;20422;-68
2021/12/28 03:13:16;;;;;;;0.60;0.60;;;-2.60;99.90;;;;;;5092388;28;20988;-68
2021/12/28 03:16:04;;;;;;;0.50;0.50;;;-2.60;99.90;;;;;;5092399;28;20419;-69
2021/12/28 03:18:51;;;;;;;2.63;2.40;;;-2.60;99.90;;;;;;5091580;28;20492;-69
2021/12/28 03:21:40;;;;;;;3.17;2.63;;;-2.60;99.90;;;;;;5092309;28;20470;-68
2021/12/28 03:24:27;;;;;;;0.50;0.50;;;-2.60;99.90;;;;;;5093439;28;20450;-70
2021/12/28 03:27:16;;;;;;;2.23;2.13;;;-2.60;99.90;;;;;;5091727;28;20939;-68
2021/12/28 03:30:05;;;;;;;1.20;1.20;;;-2.60;99.90;;;;;;5097045;28;20434;-68
2021/12/28 03:32:53;;;;;;;0.40;0.40;;;-2.40;99.90;;;;;;5096185;28;20443;-68
2021/12/28 03:35:40;;;;;;;12.53;4.87;;;-2.30;99.90;;;;;;5096214;28;20899;-68
2021/12/28 03:38:27;;;;;;;0.80;0.80;;;-2.10;99.90;;;;;;5096213;28;20985;-67
2021/12/28 03:41:17;;;;;;;1.20;1.10;;;-2.00;99.90;;;;;;5096637;28;20458;-68
2021/12/28 03:44:06;;;;;;;1.13;1.13;;;-2.00;99.90;;;;;;5096541;28;20512;-71
2021/12/28 03:46:53;;;;;;;1.77;1.77;;;-2.00;99.90;;;;;;5117901;28;20450;-72
2021/12/28 03:49:40;;;;;;;0.50;0.50;;;-2.00;99.90;;;;;;5117909;28;20430;-69
2021/12/28 03:52:27;;;;;;;3.80;3.60;;;-2.00;99.90;;;;;;5114767;28;20426;-69
2021/12/28 03:55:14;;;;;;;0.40;0.40;;;-2.00;99.90;;;;;;5116637;28;20430;-69
2021/12/28 03:58:02;;;;;;;0.40;0.40;;;-1.90;99.90;;;;;;5106300;28;21055;-69
2021/12/28 04:00:51;;;;;;;2.90;2.70;;;-1.90;99.90;;;;;;5098023;28;20893;-68
2021/12/28 04:03:38;;;;;;;0.40;0.40;;;-2.00;99.90;;;;;;5078395;28;20841;-69
2021/12/28 04:06:25;;;;;;;0.60;0.60;;;-1.90;99.90;;;;;;5076596;28;20431;-68
2021/12/28 04:09:13;;;;;;;0.50;0.50;;;-1.80;99.90;;;;;;5075150;28;20970;-68
2021/12/28 04:11:59;;;;;;;2.67;2.57;;;-1.80;99.90;;;;;;5079029;28;20523;-69
2021/12/28 04:14:47;;;;;;;1.57;1.57;;;-1.70;99.90;;;;;;5095789;28;20437;-68
2021/12/28 04:17:37;;;;;;;10.50;4.87;;;-1.60;99.90;;;;;;5096359;28;20425;-68
2021/12/28 04:20:24;;;;;;;2.83;1.27;;;-1.70;99.90;;;;;;5095505;28;20458;-68
2021/12/28 04:23:11;;;;;;;1.23;1.23;;;-1.70;99.90;;;;;;5075944;28;20424;-69
2021/12/28 04:25:58;;;;;;;0.90;0.90;;;-1.70;99.90;;;;;;5075328;28;20483;-68
2021/12/28 04:28:45;;;;;;;1.17;1.17;;;-1.60;99.90;;;;;;5074917;28;20455;-67
2021/12/28 04:31:32;;;;;;;3.73;3.60;;;-1.60;99.90;;;;;;5074631;28;20533;-68
2021/12/28 04:34:21;;;;;;;0.40;0.40;;;-1.70;99.90;;;;;;5073653;28;20420;-68
2021/12/28 04:37:08;;;;;;;0.63;0.63;;;-1.60;99.90;;;;;;5074286;28;20542;-69
2021/12/28 04:39:55;;;;;;;1.20;1.20;;;-1.50;99.90;;;;;;5073833;28;20420;-68
2021/12/28 04:42:42;;;;;;;1.57;1.47;;;-1.50;99.90;;;;;;5074916;28;20448;-71
2021/12/28 04:45:29;;;;;;;0.50;0.50;;;-1.50;99.90;;;;;;5074180;28;20424;-68
2021/12/28 04:48:16;;;;;;;0.40;0.40;;;-1.40;99.90;;;;;;5074364;28;20416;-68
2021/12/28 04:51:06;;;;;;;7.00;2.93;;;-1.40;99.90;;;;;;5074053;28;20440;-68
2021/12/28 04:53:54;;;;;;;1.03;1.03;;;-1.40;99.90;;;;;;5074711;28;20506;-68
2021/12/28 04:56:41;;;;;;;0.40;0.40;;;-1.30;99.90;;;;;;5075712;28;20443;-68
2021/12/28 04:59:28;;;;;;;0.40;0.40;;;-1.30;99.90;;;;;;5087228;28;20443;-72
2021/12/28 05:02:15;;;;;;;0.40;0.40;;;-1.20;99.90;;;;;;5087959;28;20880;-70
2021/12/28 05:05:03;;;;;;;0.50;0.50;;;-1.20;99.90;;;;;;5093917;28;20437;-69
2021/12/28 05:07:51;;;;;;;0.50;0.50;;;-1.20;99.90;;;;;;5094015;28;20438;-67
2021/12/28 05:10:39;;;;;;;0.73;0.73;;;;;;;;;;5073974;28;20416;-69
2021/12/28 05:13:26;;;;;;;0.40;0.40;;;-1.30;99.90;;;;;;5073831;28;20797;-67
2021/12/28 05:16:15;;;;;;;2.33;2.00;;;-1.20;99.90;;;;;;5075126;28;20416;-69
2021/12/28 05:19:03;;;;;;;1.50;1.43;;;-1.20;99.90;;;;;;5073906;28;20506;-67
2021/12/28 05:21:50;;;;;;;0.40;0.40;;;-1.30;99.90;;;;;;5074536;28;20468;-67
2021/12/28 05:24:39;;;;;;;1.73;1.03;;;-1.20;99.90;;;;;;5073634;28;20416;-68
2021/12/28 05:27:26;;;;;;;0.60;0.60;;;-1.20;99.90;;;;;;5073346;28;20443;-67
2021/12/28 05:30:13;;;;;;;0.50;0.50;;;-1.20;99.90;;;;;;5073570;28;20794;-68
2021/12/28 05:33:01;;;;;;;0.50;0.50;;;-1.20;99.90;;;;;;5073496;28;20948;-69
2021/12/28 05:35:48;;;;;;;1.40;1.40;;;-1.20;99.90;;;;;;5073508;28;20424;-70
2021/12/28 05:38:35;;;;;;;0.50;0.50;;;-1.20;99.90;;;;;;5072969;28;20471;-68
2021/12/28 05:41:23;;;;;;;0.43;0.43;;;-1.20;99.90;;;;;;5073055;28;20464;-69
2021/12/28 05:44:10;;;;;;;2.70;2.60;;;-1.10;99.90;;;;;;5073635;28;20419;-69
2021/12/28 05:46:57;;;;;;;0.50;0.50;;;-1.20;99.90;;;;;;5073410;28;20485;-67
2021/12/28 05:49:44;;;;;;;0.50;0.50;;;-1.10;99.90;;;;;;5073569;28;20419;-68
2021/12/28 05:52:31;;;;;;;0.50;0.50;;;-1.10;99.90;;;;;;5073145;28;20443;-67
2021/12/28 05:55:18;;;;;;;0.40;0.40;;;-1.10;99.90;;;;;;5073624;28;20955;-69
2021/12/28 05:58:06;;;;;;;0.50;0.50;;;-1.00;99.90;;;;;;5073174;28;20435;-68
2021/12/28 06:00:53;;;;;;;0.50;0.50;;;-1.10;99.90;;;;;;5072389;28;20472;-68
2021/12/28 06:03:40;;;;;;;0.40;0.40;;;-1.10;99.90;;;;;;5073402;28;20424;-69
2021/12/28 06:06:27;;;;;;;0.40;0.40;;;-1.10;99.90;;;;;;5072674;28;20424;-67
2021/12/28 06:09:14;;;;;;;0.97;0.97;;;-1.00;99.90;;;;;;5072697;28;20427;-67
2021/12/28 06:12:01;;;;;;;1.37;1.30;;;-0.90;99.90;;;;;;5072644;28;20447;-68
2021/12/28 06:14:50;;;;;;;0.50;0.50;;;-0.90;99.90;;;;;;5072410;28;20439;-68
2021/12/28 06:17:37;;;;;;;0.60;0.60;;;-0.90;99.90;;;;;;5072522;28;20812;-68
2021/12/28 06:20:24;;;;;;;0.50;0.50;;;-0.90;99.90;;;;;;5071764;28;20960;-67
2021/12/28 06:23:11;;;;;;;1.07;1.07;;;-0.80;99.90;;;;;;5072188;28;20481;-67
2021/12/28 06:25:58;;;;;;;0.60;0.60;;;-0.90;99.90;;;;;;5077189;28;20510;-68
2021/12/28 06:28:45;;;;;;;0.50;0.50;;;-0.90;99.90;;;;;;5081954;28;20478;-69
2021/12/28 06:31:34;;;;;;;0.90;0.90;;;-0.90;99.90;;;;;;5087930;28;20501;-69
2021/12/28 06:34:21;;;;;;;0.63;0.63;;;-0.90;99.90;;;;;;5089479;28;20423;-69
2021/12/28 06:37:08;;;;;;;0.70;0.70;;;-0.90;99.90;;;;;;5085900;28;20839;-69
2021/12/28 06:39:55;;;;;;;0.70;0.70;;;-0.90;99.90;;;;;;5078713;28;20477;-67
2021/12/28 06:42:42;;;;;;;0.70;0.70;;;-0.90;99.90;;;;;;5071455;28;20458;-69
2021/12/28 06:45:29;;;;;;;0.50;0.50;;;-0.90;99.90;;;;;;5072225;28;20803;-68
2021/12/28 06:48:17;;;;;;;2.50;2.30;;;-0.80;99.90;;;;;;5071870;28;20416;-68
2021/12/28 06:51:05;;;;;;;0.93;0.93;;;-0.80;99.90;;;;;;5072536;28;20443;-67
2021/12/28 06:53:52;;;;;;;1.67;1.67;;;-0.70;99.90;;;;;;5072400;28;20505;-68
2021/12/28 06:56:40;;;;;;;0.60;0.60;;;-0.80;99.90;;;;;;5071917;28;20420;-68
2021/12/28 06:59:26;;;;;;;1.33;1.23;;;-0.80;99.90;;;;;;5072321;28;20431;-68
2021/12/28 07:02:15;;;;;;;0.40;0.40;;;-0.90;99.90;;;;;;5087761;28;20482;-67
2021/12/28 07:05:04;;;;;;;1.27;1.17;;;-0.80;99.90;;;;;;5092252;28;20796;-67
2021/12/28 07:07:51;;;;;;;3.13;3.03;;;-0.80;99.90;;;;;;5093627;28;20426;-68
2021/12/28 07:10:38;;;;;;;3.93;3.77;;;-0.70;99.90;;;;;;5092328;28;20430;-68
2021/12/28 07:13:25;;;;;;;0.73;0.73;;;-0.70;99.90;;;;;;5092613;28;20472;-68
2021/12/28 07:16:12;;;;;;;0.70;0.70;;;-0.70;99.90;;;;;;5092437;28;21020;-68
2021/12/28 07:18:59;;;;;;;0.60;0.60;;;-0.80;99.90;;;;;;5092543;28;20950;-68
2021/12/28 07:21:47;;;;;;;0.77;0.77;;;-0.90;99.90;;;;;;5092351;28;20471;-68
2021/12/28 07:24:34;;;;;;;0.40;0.40;;;-0.90;99.90;;;;;;5093434;28;20424;-68
2021/12/28 07:27:21;;;;;;;0.53;0.53;;;-0.90;99.90;;;;;;5092304;28;20802;-68
2021/12/28 07:30:12;;;;;;;0.50;0.50;;;-1.00;99.90;;;;;;5092246;28;20423;-68
2021/12/28 07:32:59;;;;;;;0.50;0.50;;;-1.00;99.90;;;;;;5092067;28;20435;-68
2021/12/28 07:35:46;;;;;;;2.67;2.53;;;-1.00;99.90;;;;;;5091649;28;20419;-69
2021/12/28 07:38:34;;;;;;;0.70;0.70;;;-1.00;99.90;;;;;;5092630;28;20848;-69
2021/12/28 07:41:21;;;;;;;0.50;0.50;;;-1.00;99.90;;;;;;5091402;28;20555;-69
2021/12/28 07:44:08;;;;;;;0.40;0.40;;;-0.90;99.90;;;;;;5091416;28;20430;-69
2021/12/28 07:46:55;;;;;;;0.50;0.50;;;-0.80;99.90;;;;;;5092751;28;20434;-69
2021/12/28 07:49:42;;;;;;;0.60;0.60;;;-0.70;99.90;;;;;;5091463;28;20418;-68
2021/12/28 07:52:29;;;;;;;5.17;4.73;;;-0.60;99.90;;;;;;5092037;28;20819;-68
2021/12/28 07:55:18;;;;;;;0.53;0.53;;;-0.50;99.90;;;;;;5092368;28;20480;-69
2021/12/28 07:58:05;;;;;;;0.40;0.40;;;-0.40;99.90;;;;;;5091849;28;20430;-68
2021/12/28 08:00:52;;;;;;;2.77;2.67;;;-0.30;99.90;;;;;;5092600;28;20430;-68
2021/12/28 08:03:39;;;;;;;1.90;1.80;;;-0.30;99.90;;;;;;5092939;28;20946;-68
2021/12/28 08:06:26;;;;;;;0.43;0.43;;;-0.30;99.90;;;;;;5092316;28;20429;-67
2021/12/28 08:09:13;;;;;;;0.40;0.40;;;-0.30;99.90;;;;;;5091951;28;20430;-69
2021/12/28 08:12:01;;;;;;;0.70;0.70;;;-0.10;99.90;;;;;;5092270;28;20437;-67
2021/12/28 08:14:48;;;;;;;1.23;1.13;;;0.00;99.90;;;;;;5093405;28;20418;-68
2021/12/28 08:17:36;;;;;;;0.50;0.50;;;0.00;99.90;;;;;;5096399;28;20856;-69
2021/12/28 08:20:23;;;;;;;0.50;0.50;;;0.00;99.90;;;;;;5095635;28;20415;-69
2021/12/28 08:23:10;;;;;;;1.83;1.60;;;0.10;99.90;;;;;;5096765;28;21004;-68
2021/12/28 08:25:57;;;;;;;0.47;0.47;;;0.10;99.90;;;;;;5095905;28;20453;-69
2021/12/28 08:28:45;;;;;;;2.43;1.90;;;0.10;99.90;;;;;;5096586;28;20429;-68
2021/12/28 08:31:34;;;;;;;0.50;0.50;;;0.10;99.90;;;;;;5097069;28;20434;-68
2021/12/28 08:34:21;;;;;;;0.40;0.40;;;0.10;99.90;;;;;;5097358;28;20471;-68
2021/12/28 08:37:08;;;;;;;0.40;0.40;;;0.10;99.90;;;;;;5096588;28;20419;-69
2021/12/28 08:39:55;;;;;;;6.43;2.57;;;0.20;99.90;;;;;;5096253;28;20426;-68
2021/12/28 08:42:42;;;;;;;0.70;0.70;;;0.20;99.90;;;;;;5095652;28;21075;-68
2021/12/28 08:45:31;;;;;;;6.47;1.47;;;0.20;99.90;;;;;;5101730;28;20457;-68
2021/12/28 08:48:19;;;;;;;0.70;0.70;;;0.20;99.90;;;;;;5095250;28;20951;-70
2021/12/28 08:51:06;;;;;;;7.83;3.23;;;0.30;99.90;;;;;;5099858;28;20450;-69
2021/12/28 08:53:53;;;;;;;0.70;0.70;;;0.40;99.90;;;;;;5097773;28;20418;-69
2021/12/28 08:56:39;;;;;;;0.60;0.60;;;0.40;99.90;;;;;;5096040;28;20422;-69
2021/12/28 08:59:27;;;;;;;0.40;0.40;;;0.30;99.90;;;;;;5097363;28;20443;-70
2021/12/28 09:02:16;;;;;;;0.40;0.40;;;0.40;99.90;;;;;;5108218;22;20490;-71
2021/12/28 09:05:03;;;;;;;0.40;0.40;;;0.50;99.90;;;;;;5094443;28;20423;-71
2021/12/28 09:07:50;;;;;;;2.13;2.10;;;0.50;99.90;;;;;;5094909;28;20434;-71
2021/12/28 09:10:37;;;;;;;0.60;0.60;;;0.70;99.90;;;;;;5095484;28;20430;-72
2021/12/28 09:13:24;;;;;;;0.70;0.70;;;0.60;99.90;;;;;;5095096;28;20828;-71
2021/12/28 09:16:11;;;;;;;1.00;1.00;;;0.60;99.90;;;;;;5096096;28;20938;-72
2021/12/28 09:19:00;;;;;;;0.40;0.40;;;0.50;99.90;;;;;;5095644;28;20445;-71
2021/12/28 09:21:46;;;;;;;0.80;0.80;;;0.50;99.90;;;;;;5095961;28;20466;-72
2021/12/28 09:24:34;;;;;;;0.40;0.40;;;0.60;99.90;;;;;;5096141;28;20423;-72
2021/12/28 09:27:21;;;;;;;0.40;0.40;;;0.60;99.90;;;;;;5093277;28;20849;-72
2021/12/28 09:30:09;;;;;;;0.40;0.40;;;0.60;99.90;;;;;;5095420;28;20427;-72
2021/12/28 09:32:56;;;;;;;0.40;0.40;;;0.60;99.90;;;;;;5095191;28;20438;-72
2021/12/28 09:35:44;;;;;;;1.33;1.33;;;0.60;99.90;;;;;;5095788;28;20423;-71
2021/12/28 09:38:31;;;;;;;0.40;0.40;;;0.60;99.90;;;;;;5096183;28;20427;-72
2021/12/28 09:41:18;;;;;;;0.40;0.40;;;0.60;99.90;;;;;;5097786;28;20500;-71
2021/12/28 09:44:05;;;;;;;0.40;0.40;;;0.70;99.90;;;;;;5096115;28;20430;-71
2021/12/28 09:46:52;;;;;;;2.00;1.90;;;0.70;99.90;;;;;;5094773;28;20458;-71
2021/12/28 09:49:39;;;;;;;7.63;7.10;;;0.80;99.90;;;;;;5094174;28;20950;-71
2021/12/28 09:52:28;;;;;;;1.90;1.80;;;0.80;99.90;;;;;;5094429;28;20445;-72
2021/12/28 09:55:18;;;;;;;0.50;0.50;;;0.90;99.90;;;;;;5093628;28;20796;-72
2021/12/28 09:58:05;;;;;;;0.80;0.80;;;1.10;99.90;;;;;;5095766;28;20477;-72
2021/12/28 10:00:52;;;;;;;0.93;0.93;;;1.30;99.90;;;;;;5093601;28;20431;-72
2021/12/28 10:03:39;;;;;;;2.50;2.40;;;1.40;99.90;;;;;;5094219;28;20462;-71
2021/12/28 10:06:28;;;;;;;1.93;1.03;;;1.50;99.90;;;;;;5092979;28;20430;-72
2021/12/28 10:09:19;;;;;;;0.53;0.53;;;1.60;99.90;;;;;;5096899;28;20415;-71
2021/12/28 10:12:07;;;;;;;6.00;3.13;;;1.70;99.90;;;;;;5102555;28;20938;-72
2021/12/28 10:14:55;;;;;;;0.53;0.53;;;1.70;99.90;;;;;;5093312;28;20430;-72
2021/12/28 10:17:45;;;;;;;0.40;0.40;;;1.70;99.90;;;;;;5094000;28;20517;-72
2021/12/28 10:20:36;;;;;;;1.37;1.27;;;1.80;99.90;;;;;;5093535;28;20430;-72
2021/12/28 10:23:25;;;;;;;5.07;3.70;;;1.80;99.90;;;;;;5093096;28;20619;-71
2021/12/28 10:26:16;;;;;;;0.40;0.40;;;1.90;99.90;;;;;;5092403;28;20438;-71
2021/12/28 10:29:03;;;;;;;28.17;23.37;;;2.00;99.90;;;;;;5093454;28;20433;-72
2021/12/28 10:32:10;;;;;;;0.90;0.90;;;2.00;99.90;;;;;;5092607;28;20451;-72
2021/12/28 10:35:00;;;;;;;0.40;0.40;;;2.10;99.90;;;;;;5093668;28;20471;-72
2021/12/28 10:37:49;;;;;;;0.40;0.40;;;2.10;99.90;;;;;;5093798;28;20430;-72
2021/12/28 10:40:39;;;;;;;1.03;1.03;;;2.10;99.90;;;;;;5093176;28;20418;-72
2021/12/28 10:43:29;;;;;;;4.43;4.13;;;2.10;99.90;;;;;;5093450;28;20478;-72
2021/12/28 10:46:19;;;;;;;0.40;0.40;;;2.20;99.90;;;;;;5093438;28;20831;-72
2021/12/28 10:49:05;;;;;;;2.20;2.10;;;2.20;99.90;;;;;;5093162;28;20423;-72
2021/12/28 10:51:53;;;;;;;0.40;0.40;;;2.20;99.90;;;;;;5093040;28;20499;-72
2021/12/28 10:54:40;;;;;;;0.40;0.40;;;2.30;99.90;;;;;;5092426;28;20945;-72
2021/12/28 10:57:39;;;;;;;0.97;0.97;;;2.50;99.90;;;;;;5092878;28;20480;-72
2021/12/28 11:00:30;;;;;;;0.40;0.40;;;2.60;99.90;;;;;;5091677;28;20469;-72
2021/12/28 11:03:23;;;;;;;1.13;1.13;;;2.70;99.90;;;;;;5073518;28;20475;-72
2021/12/28 11:06:17;;;;;;;0.40;0.40;;;2.70;99.90;;;;;;5073977;28;20485;-72
2021/12/28 11:09:07;;;;;;;0.90;0.90;;;2.70;99.90;;;;;;5073998;28;20855;-72
2021/12/28 11:11:56;;;;;;;0.50;0.50;;;2.60;99.90;;;;;;5073454;28;20443;-72
2021/12/28 11:14:43;;;;;;;0.50;0.50;;;2.60;99.90;;;;;;5073900;28;20822;-72
2021/12/28 11:17:32;;;;;;;0.50;0.50;;;2.70;99.90;;;;;;5071671;28;20431;-72
2021/12/28 11:20:30;;;;;;;0.40;0.40;;;2.70;99.90;;;;;;5072299;28;20847;-72
2021/12/28 11:23:19;;;;;;;0.60;0.60;;;2.70;99.90;;;;;;5073866;28;20455;-72
2021/12/28 11:26:14;;;;;;;0.87;0.87;;;2.70;99.90;;;;;;5072650;28;20809;-72
2021/12/28 11:29:04;;;;;;;2.10;2.00;;;2.90;99.90;;;;;;5072575;28;20958;-72
2021/12/28 11:31:54;;;;;;;0.40;0.40;;;2.80;99.90;;;;;;5072817;28;20964;-72
2021/12/28 11:34:43;;;;;;;0.40;0.40;;;2.70;99.90;;;;;;5073257;28;20427;-72
2021/12/28 11:37:31;;;;;;;0.87;0.87;;;2.80;99.90;;;;;;5073030;28;20426;-72
2021/12/28 11:40:18;;;;;;;0.40;0.40;;;2.80;99.90;;;;;;5071127;28;20443;-72
2021/12/28 11:43:06;;;;;;;0.40;0.40;;;2.80;99.90;;;;;;5072651;28;20468;-73
2021/12/28 11:45:53;;;;;;;1.37;1.27;;;2.70;99.90;;;;;;5073358;28;20431;-71
2021/12/28 11:48:42;;;;;;;0.50;0.50;;;2.60;99.90;;;;;;5072186;28;20799;-72
2021/12/28 11:51:30;;;;;;;1.50;1.47;;;2.60;99.90;;;;;;5077368;28;20431;-72
2021/12/28 11:54:18;;;;;;;0.40;0.40;;;2.70;99.90;;;;;;5076938;28;20419;-72
2021/12/28 11:57:08;;;;;;;0.67;0.67;;;2.70;99.90;;;;;;5077604;28;20947;-72
2021/12/28 11:59:57;;;;;;;1.57;1.47;;;2.80;99.90;;;;;;5077058;28;20435;-72
2021/12/28 12:02:49;;;;;;;0.40;0.40;;;2.80;99.90;;;;;;5076137;28;20837;-72
2021/12/28 12:05:44;;;;;;;0.40;0.40;;;2.70;99.90;;;;;;5076736;28;20453;-72
2021/12/28 12:08:35;;;;;;;0.40;0.40;;;2.60;99.90;;;;;;5076306;28;21022;-72
2021/12/28 12:11:21;;;;;;;0.40;0.40;;;2.60;99.90;;;;;;5081546;28;20431;-72
2021/12/28 12:14:09;;;;;;;0.40;0.40;;;2.60;99.90;;;;;;5090327;28;20419;-72
2021/12/28 12:17:39;;;;;;;0.40;0.40;;;2.50;99.90;;;;;;5076994;28;20427;-72
2021/12/28 12:20:33;;;;;;;0.40;0.40;;;2.60;99.90;;;;;;5076984;28;20521;-72
2021/12/28 12:23:23;;;;;;;0.40;0.40;;;2.70;99.90;;;;;;5083454;28;20553;-72
2021/12/28 12:26:17;;;;;;;0.93;0.93;;;2.70;99.90;;;;;;5094578;28;20458;-72
2021/12/28 12:29:20;;;;;;;5.13;2.60;;;2.70;99.90;;;;;;5094224;28;20457;-72
2021/12/28 12:32:07;;;;;;;0.40;0.40;;;2.70;99.90;;;;;;5094342;28;20465;-72
2021/12/28 12:34:54;;;;;;;0.40;0.40;;;2.70;99.90;;;;;;5081501;28;20426;-72
2021/12/28 12:37:42;;;;;;;4.73;4.40;;;2.80;99.90;;;;;;5077174;28;20967;-72
2021/12/28 12:40:51;;;;;;;0.40;0.40;;;2.80;99.90;;;;;;5076526;28;21010;-72
2021/12/28 12:43:47;;;;;;;0.40;0.40;;;2.90;99.90;;;;;;5076744;28;20470;-72
2021/12/28 12:46:38;;;;;;;0.40;0.40;;;2.90;99.90;;;;;;5076004;28;20427;-72
2021/12/28 12:49:27;;;;;;;0.40;0.40;;;2.90;99.90;;;;;;5075210;28;20451;-72
2021/12/28 12:52:17;;;;;;;2.40;2.30;;;2.90;99.90;;;;;;5076069;28;20454;-72
2021/12/28 12:55:06;;;;;;;0.40;0.40;;;2.90;99.90;;;;;;5076026;28;20431;-72
2021/12/28 12:58:17;;;;;;;1.80;1.70;;;2.90;99.90;;;;;;5076172;28;20434;-72
2021/12/28 13:01:05;;;;;;;0.40;0.40;;;2.90;99.90;;;;;;5081475;28;20435;-72
2021/12/28 13:03:53;;;;;;;0.40;0.40;;;3.00;99.90;;;;;;5095458;28;20535;-72
2021/12/28 13:06:59;;;;;;;0.40;0.40;;;2.90;99.90;;;;;;5096436;28;20423;-72
2021/12/28 13:09:47;;;;;;;0.40;0.40;;;2.90;99.90;;;;;;5098493;28;20806;-72
2021/12/28 13:12:36;;;;;;;0.40;0.40;;;3.00;99.90;;;;;;5108638;28;20446;-72
2021/12/28 13:15:28;;;;;;;0.50;0.50;;;3.10;99.90;;;;;;5097266;28;20435;-72
2021/12/28 13:18:16;;;;;;;2.70;2.50;;;3.10;99.90;;;;;;5094779;28;20414;-72
2021/12/28 13:21:03;;;;;;;0.93;0.93;;;3.20;99.90;;;;;;5095361;28;20522;-72
2021/12/28 13:24:05;;;;;;;0.40;0.40;;;3.30;99.90;;;;;;5095081;28;21005;-72
2021/12/28 13:26:56;;;;;;;0.50;0.50;;;3.30;99.90;;;;;;5095934;28;20426;-72
2021/12/28 13:29:44;;;;;;;2.33;2.23;;;3.30;99.90;;;;;;5096095;28;20430;-72
2021/12/28 13:32:34;;;;;;;1.03;1.03;;;3.30;99.90;;;;;;5095692;28;20874;-72
2021/12/28 13:35:24;;;;;;;0.40;0.40;;;3.30;99.90;;;;;;5095653;28;20807;-72
2021/12/28 13:38:13;;;;;;;0.70;0.70;;;3.20;99.90;;;;;;5095383;28;20419;-72
2021/12/28 13:41:00;;;;;;;0.40;0.40;;;3.20;99.90;;;;;;5094742;28;20422;-72
2021/12/28 13:43:48;;;;;;;0.50;0.50;;;3.30;99.90;;;;;;5094996;28;20457;-72
2021/12/28 13:46:35;;;;;;;0.40;0.40;;;3.30;99.90;;;;;;5095365;28;20446;-72
2021/12/28 13:49:22;;;;;;;0.40;0.40;;;3.40;99.90;;;;;;5096233;28;20422;-72
2021/12/28 13:52:10;;;;;;;1.60;1.50;;;3.40;99.90;;;;;;5094480;28;20446;-72
2021/12/28 13:54:57;;;;;;;0.60;0.60;;;3.50;99.90;;;;;;5095036;28;20426;-72
2021/12/28 13:57:44;;;;;;;0.40;0.40;;;3.40;99.90;;;;;;5094469;28;20468;-72
2021/12/28 14:00:34;;;;;;;0.40;0.40;;;3.50;99.90;;;;;;5092327;28;20426;-72
2021/12/28 14:03:22;;;;;;;0.77;0.77;;;3.60;99.90;;;;;;5074874;28;20470;-72
2021/12/28 14:06:10;;;;;;;0.77;0.77;;;3.60;99.90;;;;;;5073496;28;20424;-72
2021/12/28 14:09:02;;;;;;;0.40;0.40;;;3.60;99.90;;;;;;5073380;28;20833;-72
2021/12/28 14:11:53;;;;;;;0.40;0.40;;;3.50;99.90;;;;;;5076611;28;20573;-72
2021/12/28 14:14:47;;;;;;;0.40;0.40;;;3.50;99.90;;;;;;5086068;28;20427;-72
2021/12/28 14:17:35;;;;;;;0.40;0.40;;;3.40;99.90;;;;;;5074920;28;20431;-72
2021/12/28 14:20:27;;;;;;;0.40;0.40;;;3.30;99.90;;;;;;5073455;28;20474;-72
2021/12/28 14:23:14;;;;;;;0.40;0.40;;;3.20;99.90;;;;;;5073998;28;20543;-72
2021/12/28 14:26:09;;;;;;;0.40;0.40;;;3.30;99.90;;;;;;5073668;28;20427;-72
2021/12/28 14:28:58;;;;;;;0.40;0.40;;;3.20;99.90;;;;;;5073155;28;20528;-72
2021/12/28 14:31:48;;;;;;;0.40;0.40;;;3.20;99.90;;;;;;5073209;28;20439;-72
2021/12/28 14:34:38;;;;;;;0.40;0.40;;;3.20;99.90;;;;;;5073291;28;20573;-72
2021/12/28 14:37:25;;;;;;;4.00;3.80;;;3.10;99.90;;;;;;5073864;28;20447;-72
2021/12/28 14:40:15;;;;;;;0.40;0.40;;;3.10;99.90;;;;;;5073306;28;20423;-72
2021/12/28 14:43:09;;;;;;;0.50;0.50;;;3.00;99.90;;;;;;5072149;28;20482;-72
2021/12/28 14:45:56;;;;;;;0.40;0.40;;;2.90;99.90;;;;;;5073287;28;20431;-72